Time;durP1;ratioP1;P1;durP2;ratioP2;P2;SDS_P1;SDS_P2;PMS_P1;PMS_P2;Temp;Humidity;BMP_temperature;BMP_pressure;BME280_temperature;BME280_humidity;BME280_pressure;Samples;Min_cycle;Max_cycle;Signal;HPM_P1;HPM_P2
2022/12/12 00:00:48;;;;;;;34.10;11.30;;;;;;;;;;5014575;28;20478;-74
2022/12/12 00:03:13;;;;;;;32.33;9.38;;;;;;;;;;5026628;28;20037;-74
2022/12/12 00:05:39;;;;;;;32.72;10.57;;;;;;;;;;5028893;28;20030;-75
2022/12/12 00:08:04;;;;;;;40.10;11.57;;;;;;;;;;5027590;28;20042;-75
2022/12/12 00:10:30;;;;;;;36.45;11.27;;;;;;;;;;5015129;28;20056;-74
2022/12/12 00:12:55;;;;;;;35.53;10.20;;;;;;;;;;5021855;28;20033;-75
2022/12/12 00:15:21;;;;;;;37.03;10.13;;;;;;;;;;5019970;28;20473;-75
2022/12/12 00:17:46;;;;;;;37.95;10.98;;;;;;;;;;5001050;28;20036;-74
2022/12/12 00:20:11;;;;;;;43.92;9.02;;;;;;;;;;5026426;28;20060;-75
2022/12/12 00:22:37;;;;;;;35.28;10.23;;;;;;;;;;5016554;28;20037;-75
2022/12/12 00:25:03;;;;;;;29.92;9.63;;;;;;;;;;5017329;28;20081;-75
2022/12/12 00:27:30;;;;;;;29.25;9.15;;;;;;;;;;5014111;28;20045;-74
2022/12/12 00:29:55;;;;;;;33.30;8.50;;;;;;;;;;5026074;28;20037;-74
2022/12/12 00:32:21;;;;;;;25.80;9.43;;;;;;;;;;5029728;28;20520;-74
2022/12/12 00:34:46;;;;;;;26.77;9.25;;;;;;;;;;5020187;28;20157;-74
2022/12/12 00:37:11;;;;;;;32.75;9.95;;;;;;;;;;5017768;28;20048;-74
2022/12/12 00:39:37;;;;;;;31.98;10.27;;;;;;;;;;5016221;28;20037;-75
2022/12/12 00:42:02;;;;;;;33.03;10.27;;;;;;;;;;5020097;28;20056;-74
2022/12/12 00:44:28;;;;;;;33.13;9.55;;;;;;;;;;5016165;28;20524;-74
2022/12/12 00:46:53;;;;;;;32.65;10.27;;;;;;;;;;5021222;28;20401;-74
2022/12/12 00:49:19;;;;;;;27.90;8.48;;;;;;;;;;5018748;28;20068;-73
2022/12/12 00:51:44;;;;;;;29.60;10.20;;;;;;;;;;5019696;28;20046;-73
2022/12/12 00:54:10;;;;;;;32.17;9.60;;;;;;;;;;5016928;28;20029;-73
2022/12/12 00:56:35;;;;;;;23.30;9.45;;;;;;;;;;5016992;28;20529;-74
2022/12/12 00:59:02;;;;;;;28.15;7.75;;;;;;;;;;5021590;28;20034;-73
2022/12/12 01:01:29;;;;;;;35.25;8.85;;;;;;;;;;5028820;28;20033;-74
2022/12/12 01:03:54;;;;;;;26.70;8.32;;;;;;;;;;5011028;28;20084;-73
2022/12/12 01:06:20;;;;;;;37.40;9.68;;;;;;;;;;5030838;28;20033;-73
2022/12/12 01:08:46;;;;;;;38.35;10.68;;;;;;;;;;5023476;28;20069;-74
2022/12/12 01:11:13;;;;;;;24.65;9.70;;;;;;;;;;5016931;28;20076;-73
2022/12/12 01:13:38;;;;;;;33.13;9.13;;;;;;;;;;5027881;28;20084;-74
2022/12/12 01:16:05;;;;;;;33.63;9.75;;;;;;;;;;5025843;28;20045;-73
2022/12/12 01:18:31;;;;;;;25.67;8.55;;;;;;;;;;5023787;28;20034;-73
2022/12/12 01:20:56;;;;;;;24.67;8.52;;;;;;;;;;5017810;28;20042;-74
2022/12/12 01:23:22;;;;;;;26.52;9.02;;;;;;;;;;5029452;28;20060;-73
2022/12/12 01:25:47;;;;;;;33.03;9.68;;;;;;;;;;5031644;28;20029;-74
2022/12/12 01:28:13;;;;;;;43.65;9.65;;;;;;;;;;5024932;28;20038;-73
2022/12/12 01:30:38;;;;;;;54.15;8.52;;;;;;;;;;5019715;28;20029;-74
2022/12/12 01:33:04;;;;;;;58.92;8.38;;;;;;;;;;5023888;28;20438;-73
2022/12/12 01:35:31;;;;;;;28.98;9.93;;;;;;;;;;5024087;28;20144;-74
2022/12/12 01:37:56;;;;;;;25.75;9.10;;;;;;;;;;5042064;28;20032;-74
2022/12/12 01:40:25;;;;;;;18.60;6.82;;;;;;;;;;5030109;28;20108;-73
2022/12/12 01:42:51;;;;;;;31.58;9.07;;;;;;;;;;5009382;28;20142;-73
2022/12/12 01:46:09;;;;;;;34.45;8.80;;;;;;;;;;5019335;28;20485;-74
2022/12/12 01:48:39;;;;;;;28.38;8.77;;;;;;;;;;5034931;28;20048;-73
2022/12/12 01:51:08;;;;;;;33.40;9.05;;;;;;;;;;5023258;28;20430;-74
2022/12/12 01:53:35;;;;;;;25.67;8.98;;;;;;;;;;5029297;28;20038;-73
2022/12/12 01:56:02;;;;;;;26.27;9.05;;;;;;;;;;5037791;28;20092;-74
2022/12/12 01:58:28;;;;;;;26.13;8.73;;;;;;;;;;5040777;28;20040;-73
2022/12/12 02:00:53;;;;;;;26.92;8.27;;;;;;;;;;5029125;28;20116;-73
2022/12/12 02:03:19;;;;;;;26.23;9.05;;;;;;;;;;5019764;28;20076;-73
2022/12/12 02:05:50;;;;;;;26.15;8.98;;;;;;;;;;5016213;28;20437;-73
2022/12/12 02:08:19;;;;;;;25.45;9.50;;;;;;;;;;5015056;28;20045;-73
2022/12/12 02:10:44;;;;;;;29.02;9.68;;;;;;;;;;5014529;28;20125;-73
2022/12/12 02:13:14;;;;;;;25.10;7.95;;;;;;;;;;5013019;28;20454;-73
2022/12/12 02:15:54;;;;;;;31.40;8.82;;;;;;;;;;5015308;28;20486;-73
2022/12/12 02:18:47;;;;;;;25.02;8.55;;;;;;;;;;5025632;28;20037;-74
2022/12/12 02:21:25;;;;;;;24.25;7.97;;;;;;;;;;5018756;28;20045;-73
2022/12/12 02:24:28;;;;;;;16.65;7.78;;;;;;;;;;5001620;28;20394;-73
2022/12/12 02:27:12;;;;;;;27.08;7.72;;;;;;;;;;5022354;28;20045;-73
2022/12/12 02:30:24;;;;;;;29.33;8.07;;;;;;;;;;5009187;28;20436;-73
2022/12/12 02:33:31;;;;;;;19.58;7.95;;;;;;;;;;4982794;28;20115;-73
2022/12/12 02:36:21;;;;;;;19.40;7.30;;;;;;;;;;5016778;28;20042;-73
2022/12/12 02:39:23;;;;;;;30.13;9.02;;;;;;;;;;5029356;28;20037;-73
2022/12/12 02:42:13;;;;;;;25.48;8.55;;;;;;;;;;5032660;28;20041;-73
2022/12/12 02:45:03;;;;;;;30.13;8.38;;;;;;;;;;5019862;28;20041;-73
2022/12/12 02:47:30;;;;;;;28.05;8.23;;;;;;;;;;5030812;28;20064;-73
2022/12/12 02:50:01;;;;;;;18.30;7.70;;;;;;;;;;5001159;28;20038;-74
2022/12/12 02:52:27;;;;;;;35.13;9.48;;;;;;;;;;5006459;28;20025;-73
2022/12/12 02:54:52;;;;;;;23.27;8.07;;;;;;;;;;5028627;28;20049;-74
2022/12/12 02:57:20;;;;;;;35.45;9.05;;;;;;;;;;5015111;28;20424;-73
2022/12/12 03:00:07;;;;;;;34.00;8.45;;;;;;;;;;5029092;28;20120;-73
2022/12/12 03:08:55;;;;;;;25.48;8.35;;;;;;;;;;5029224;28;20104;-74
2022/12/12 03:11:31;;;;;;;37.97;9.07;;;;;;;;;;5007614;28;20033;-73
2022/12/12 03:14:08;;;;;;;38.20;8.70;;;;;;;;;;5021294;28;20044;-73
2022/12/12 03:17:02;;;;;;;29.25;8.93;;;;;;;;;;5025861;28;20041;-73
2022/12/12 03:19:29;;;;;;;30.23;8.85;;;;;;;;;;5009826;28;20151;-73
2022/12/12 03:22:02;;;;;;;25.17;8.05;;;;;;;;;;5029561;28;20397;-73
2022/12/12 03:25:01;;;;;;;28.55;9.05;;;;;;;;;;5024247;28;20044;-73
2022/12/12 03:27:31;;;;;;;32.28;9.43;;;;;;;;;;4995579;28;20061;-73
2022/12/12 03:30:16;;;;;;;31.83;8.43;;;;;;;;;;5028916;28;20526;-74
2022/12/12 03:32:44;;;;;;;28.40;8.93;;;;;;;;;;5020577;28;20048;-74
2022/12/12 03:35:14;;;;;;;36.75;10.15;;;;;;;;;;5029208;28;20037;-73
2022/12/12 03:37:45;;;;;;;26.15;8.73;;;;;;;;;;4996014;28;20371;-73
2022/12/12 03:40:26;;;;;;;28.05;8.73;;;;;;;;;;5028360;28;20045;-73
2022/12/12 03:43:13;;;;;;;46.50;10.48;;;;;;;;;;5023130;28;20557;-73
2022/12/12 03:45:45;;;;;;;24.13;9.30;;;;;;;;;;4994834;28;20046;-73
2022/12/12 03:48:17;;;;;;;31.27;8.73;;;;;;;;;;5035533;28;20061;-73
2022/12/12 03:50:50;;;;;;;29.92;10.40;;;;;;;;;;5023909;28;20371;-74
2022/12/12 03:53:41;;;;;;;39.97;9.15;;;;;;;;;;5029952;28;20025;-73
2022/12/12 03:56:24;;;;;;;34.03;9.52;;;;;;;;;;5013619;28;20104;-74
2022/12/12 04:23:15;;;;;;;18.17;6.35;;;;;;;;;;5021539;28;20188;-73
2022/12/12 04:28:44;;;;;;;25.15;8.48;;;;;;;;;;5033266;28;20619;-73
2022/12/12 04:31:10;;;;;;;27.38;8.48;;;;;;;;;;5008616;28;20034;-73
2022/12/12 04:33:41;;;;;;;26.85;8.38;;;;;;;;;;5033878;28;20025;-74
2022/12/12 04:36:09;;;;;;;41.65;10.13;;;;;;;;;;5018447;28;20042;-73
2022/12/12 04:38:35;;;;;;;36.92;7.82;;;;;;;;;;5035427;28;20429;-73
2022/12/12 04:41:01;;;;;;;38.47;9.40;;;;;;;;;;5003490;28;20516;-73
2022/12/12 04:43:34;;;;;;;37.70;8.07;;;;;;;;;;5011929;28;20105;-74
2022/12/12 04:46:06;;;;;;;30.75;9.38;;;;;;;;;;4999211;28;20072;-73
2022/12/12 04:48:46;;;;;;;39.60;8.98;;;;;;;;;;5022097;28;20053;-74
2022/12/12 04:51:14;;;;;;;33.47;8.45;;;;;;;;;;4999893;28;20045;-73
2022/12/12 04:53:46;;;;;;;29.40;8.38;;;;;;;;;;5005574;28;20144;-73
2022/12/12 04:56:16;;;;;;;10.65;4.57;;;;;;;;;;5013311;28;20041;-73
2022/12/12 04:58:42;;;;;;;27.23;7.85;;;;;;;;;;5001625;28;20041;-73
2022/12/12 05:01:12;;;;;;;32.83;8.88;;;;;;;;;;5016399;28;20030;-73
2022/12/12 05:03:41;;;;;;;30.00;8.88;;;;;;;;;;5016444;28;20092;-73
2022/12/12 05:06:10;;;;;;;27.83;9.38;;;;;;;;;;5025548;28;20044;-73
2022/12/12 05:08:39;;;;;;;26.58;7.28;;;;;;;;;;5003214;28;20548;-73
2022/12/12 05:11:05;;;;;;;31.92;9.63;;;;;;;;;;5023567;28;20046;-74
2022/12/12 05:13:34;;;;;;;26.38;8.00;;;;;;;;;;4990372;28;20030;-73
2022/12/12 05:16:01;;;;;;;27.23;9.35;;;;;;;;;;5029449;28;20030;-73
2022/12/12 05:18:27;;;;;;;26.48;9.70;;;;;;;;;;5042488;28;20044;-74
2022/12/12 05:20:53;;;;;;;22.55;7.75;;;;;;;;;;5024909;28;20026;-73
2022/12/12 05:23:18;;;;;;;32.83;10.15;;;;;;;;;;5020253;28;20036;-73
2022/12/12 05:25:44;;;;;;;30.70;8.85;;;;;;;;;;4998848;28;20042;-73
2022/12/12 05:28:09;;;;;;;28.60;10.35;;;;;;;;;;5003481;28;20478;-73
2022/12/12 05:30:35;;;;;;;31.77;9.32;;;;;;;;;;5027736;28;20034;-73
2022/12/12 05:33:00;;;;;;;39.10;9.35;;;;;;;;;;5021080;28;20128;-73
2022/12/12 05:35:26;;;;;;;26.10;9.18;;;;;;;;;;5016118;28;20025;-73
2022/12/12 05:37:51;;;;;;;29.40;10.80;;;;;;;;;;5031585;28;20088;-73
2022/12/12 05:40:18;;;;;;;33.17;10.23;;;;;;;;;;5029341;28;20033;-73
2022/12/12 05:42:44;;;;;;;31.40;9.88;;;;;;;;;;5035256;28;20388;-73
2022/12/12 05:45:09;;;;;;;29.15;10.30;;;;;;;;;;5022273;28;20044;-74
2022/12/12 05:47:35;;;;;;;29.75;9.00;;;;;;;;;;5026149;28;20041;-73
2022/12/12 05:50:00;;;;;;;33.10;10.85;;;;;;;;;;5030222;28;20038;-73
2022/12/12 05:52:26;;;;;;;30.00;9.20;;;;;;;;;;5033984;28;20030;-73
2022/12/12 05:54:52;;;;;;;31.83;9.73;;;;;;;;;;5021846;28;20073;-75
2022/12/12 05:57:17;;;;;;;29.50;9.63;;;;;;;;;;5002167;28;20113;-73
2022/12/12 05:59:46;;;;;;;26.95;10.50;;;;;;;;;;5020556;28;20037;-73
2022/12/12 06:02:12;;;;;;;22.58;8.00;;;;;;;;;;5025966;28;20124;-74
2022/12/12 06:04:38;;;;;;;27.95;10.15;;;;;;;;;;5025801;28;20393;-74
2022/12/12 06:07:04;;;;;;;21.45;10.30;;;;;;;;;;5027341;28;20034;-73
2022/12/12 06:09:29;;;;;;;35.58;10.75;;;;;;;;;;5024666;28;20099;-73
2022/12/12 06:11:55;;;;;;;33.67;9.88;;;;;;;;;;5017421;28;20030;-73
2022/12/12 06:14:20;;;;;;;31.70;11.25;;;;;;;;;;5025636;28;20452;-74
2022/12/12 06:16:45;;;;;;;29.23;10.35;;;;;;;;;;5026857;28;20045;-73
2022/12/12 06:19:11;;;;;;;29.67;10.02;;;;;;;;;;5021240;28;20117;-73
2022/12/12 06:21:36;;;;;;;29.25;11.85;;;;;;;;;;5026860;28;20041;-73
2022/12/12 06:24:04;;;;;;;23.55;10.07;;;;;;;;;;5021407;28;20033;-73
2022/12/12 06:26:29;;;;;;;30.48;10.65;;;;;;;;;;5015641;28;20038;-73
2022/12/12 06:28:55;;;;;;;32.30;10.60;;;;;;;;;;5025399;28;20033;-73
2022/12/12 06:31:21;;;;;;;25.38;10.27;;;;;;;;;;5017301;28;20141;-73
2022/12/12 06:33:46;;;;;;;33.60;10.20;;;;;;;;;;5018051;28;20029;-74
2022/12/12 06:36:25;;;;;;;24.85;9.88;;;;;;;;;;5016711;28;20140;-73
2022/12/12 06:38:52;;;;;;;28.90;11.00;;;;;;;;;;5022608;28;20398;-73
2022/12/12 06:41:18;;;;;;;19.05;7.10;;;;;;;;;;5024876;28;20367;-73
2022/12/12 06:43:44;;;;;;;29.33;10.80;;;;;;;;;;5026851;28;20091;-73
2022/12/12 06:46:13;;;;;;;29.63;11.25;;;;;;;;;;5023879;28;20073;-74
2022/12/12 06:48:39;;;;;;;27.55;10.70;;;;;;;;;;5001936;28;20460;-73
2022/12/12 06:51:06;;;;;;;33.40;10.65;;;;;;;;;;5014867;28;20125;-74
2022/12/12 06:53:32;;;;;;;30.52;10.43;;;;;;;;;;5038887;28;20111;-73
2022/12/12 06:55:57;;;;;;;31.73;11.82;;;;;;;;;;5005446;28;20482;-73
2022/12/12 06:58:22;;;;;;;24.00;10.38;;;;;;;;;;5023643;28;20048;-74
2022/12/12 07:00:52;;;;;;;35.92;11.85;;;;;;;;;;5029392;28;20540;-73
2022/12/12 07:03:17;;;;;;;29.95;11.80;;;;;;;;;;5027902;28;20484;-74
2022/12/12 07:05:44;;;;;;;25.58;10.55;;;;;;;;;;5023914;28;20165;-73
2022/12/12 07:08:10;;;;;;;28.25;9.95;;;;;;;;;;5018562;28;20037;-74
2022/12/12 07:10:35;;;;;;;30.70;12.27;;;;;;;;;;5027572;28;20044;-73
2022/12/12 07:13:01;;;;;;;24.40;11.18;;;;;;;;;;5020640;28;20034;-73
2022/12/12 07:15:26;;;;;;;30.30;12.23;;;;;;;;;;5016643;28;20414;-73
2022/12/12 07:17:52;;;;;;;43.78;12.68;;;;;;;;;;5023103;28;20049;-73
2022/12/12 07:20:18;;;;;;;30.25;11.23;;;;;;;;;;5020070;28;20474;-73
2022/12/12 07:22:44;;;;;;;33.05;12.90;;;;;;;;;;5031688;28;20050;-73
2022/12/12 07:25:09;;;;;;;29.55;11.38;;;;;;;;;;5023499;28;20440;-73
2022/12/12 07:27:35;;;;;;;28.45;10.52;;;;;;;;;;5023461;28;20038;-73
2022/12/12 07:30:00;;;;;;;30.40;11.93;;;;;;;;;;5031975;28;20447;-73
2022/12/12 07:32:25;;;;;;;30.85;11.80;;;;;;;;;;5030392;28;20057;-73
2022/12/12 07:34:51;;;;;;;32.85;12.05;;;;;;;;;;5018395;28;20469;-74
2022/12/12 07:37:16;;;;;;;25.58;10.82;;;;;;;;;;5018622;28;20559;-74
2022/12/12 07:39:42;;;;;;;29.15;11.32;;;;;;;;;;5016058;28;20030;-74
2022/12/12 07:42:08;;;;;;;24.40;11.38;;;;;;;;;;4948936;28;20045;-73
2022/12/12 07:44:33;;;;;;;22.50;9.85;;;;;;;;;;4985454;28;20192;-73
2022/12/12 07:46:58;;;;;;;28.75;11.57;;;;;;;;;;5026165;28;20025;-73
2022/12/12 07:49:24;;;;;;;23.25;10.57;;;;;;;;;;5022200;28;20477;-73
2022/12/12 07:51:50;;;;;;;20.10;10.45;;;;;;;;;;5019478;28;20050;-74
2022/12/12 07:54:16;;;;;;;23.08;11.07;;;;;;;;;;5024806;28;20461;-73
2022/12/12 07:56:41;;;;;;;21.48;8.88;;;;;;;;;;5007837;28;20144;-73
2022/12/12 07:59:07;;;;;;;29.27;12.02;;;;;;;;;;5047742;28;20049;-74
2022/12/12 08:01:32;;;;;;;30.27;11.77;;;;;;;;;;5027886;28;20025;-73
2022/12/12 08:03:57;;;;;;;25.95;10.50;;;;;;;;;;4974814;28;20046;-73
2022/12/12 08:06:23;;;;;;;26.05;10.65;;;;;;;;;;4950742;28;20117;-74
2022/12/12 08:08:50;;;;;;;26.00;12.07;;;;;;;;;;4845405;28;20049;-74
2022/12/12 08:11:19;;;;;;;24.10;9.10;;;;;;;;;;5040466;28;20041;-74
2022/12/12 08:13:45;;;;;;;23.27;9.30;;;;;;;;;;5012576;28;20077;-74
2022/12/12 08:16:16;;;;;;;31.00;11.18;;;;;;;;;;5029828;28;20057;-74
2022/12/12 08:18:42;;;;;;;25.98;9.57;;;;;;;;;;5028237;28;20038;-74
2022/12/12 08:21:12;;;;;;;25.00;11.02;;;;;;;;;;5043356;28;20041;-74
2022/12/12 08:23:38;;;;;;;22.73;10.18;;;;;;;;;;4758409;28;20064;-74
2022/12/12 08:26:05;;;;;;;25.55;10.73;;;;;;;;;;5013491;28;20116;-74
2022/12/12 08:28:30;;;;;;;28.17;11.02;;;;;;;;;;5022734;28;20120;-74
2022/12/12 08:30:55;;;;;;;26.65;10.38;;;;;;;;;;5022932;28;20541;-74
2022/12/12 08:33:21;;;;;;;27.30;9.85;;;;;;;;;;4715608;28;20060;-74
2022/12/12 08:35:46;;;;;;;26.50;11.18;;;;;;;;;;4983359;28;20382;-74
2022/12/12 08:38:12;;;;;;;22.67;9.98;;;;;;;;;;5028315;28;20103;-74
2022/12/12 08:40:38;;;;;;;28.42;10.95;;;;;;;;;;5009843;28;20037;-74
2022/12/12 08:43:03;;;;;;;26.45;10.48;;;;;;;;;;4977545;28;20062;-75
2022/12/12 08:45:29;;;;;;;28.02;10.85;;;;;;;;;;5030097;28;20041;-74
2022/12/12 08:47:54;;;;;;;30.67;12.02;;;;;;;;;;5028459;28;20096;-74
2022/12/12 08:50:19;;;;;;;24.67;11.63;;;;;;;;;;5023150;28;20070;-74
2022/12/12 08:52:45;;;;;;;19.05;9.98;;;;;;;;;;5022865;28;20041;-74
2022/12/12 08:55:10;;;;;;;24.20;11.82;;;;;;;;;;5018847;28;20643;-74
2022/12/12 08:57:35;;;;;;;29.13;12.50;;;;;;;;;;5020906;28;20037;-73
2022/12/12 09:00:02;;;;;;;34.05;12.43;;;;;;;;;;5018617;28;20045;-74
2022/12/12 09:02:28;;;;;;;31.17;11.48;;;;;;;;;;4995034;28;20466;-74
2022/12/12 09:04:53;;;;;;;29.80;11.82;;;;;;;;;;5019700;28;20041;-74
2022/12/12 09:07:18;;;;;;;24.35;10.23;;;;;;;;;;4990875;28;21729;-74
2022/12/12 09:09:44;;;;;;;26.85;10.82;;;;;;;;;;5012411;28;20029;-74
2022/12/12 09:12:09;;;;;;;29.95;11.27;;;;;;;;;;5008962;28;20033;-74
2022/12/12 09:14:35;;;;;;;28.35;11.82;;;;;;;;;;5024667;28;20355;-74
2022/12/12 09:17:00;;;;;;;40.70;14.75;;;;;;;;;;5024850;28;20075;-74
2022/12/12 09:19:25;;;;;;;24.92;11.38;;;;;;;;;;5028403;28;20044;-74
2022/12/12 09:21:51;;;;;;;22.50;10.88;;;;;;;;;;5030193;28;20033;-74
2022/12/12 09:24:16;;;;;;;28.63;13.18;;;;;;;;;;5019533;28;20033;-75
2022/12/12 09:26:42;;;;;;;27.35;12.48;;;;;;;;;;5019064;28;20044;-74
2022/12/12 09:29:07;;;;;;;28.90;11.45;;;;;;;;;;5007833;28;20481;-75
2022/12/12 09:31:32;;;;;;;28.17;12.07;;;;;;;;;;5014183;28;20109;-75
2022/12/12 09:33:58;;;;;;;24.17;11.48;;;;;;;;;;5012639;28;20490;-74
2022/12/12 09:36:23;;;;;;;26.98;11.13;;;;;;;;;;5026161;28;20044;-75
2022/12/12 09:38:49;;;;;;;21.58;11.10;;;;;;;;;;5027126;28;20492;-75
2022/12/12 09:41:17;;;;;;;26.80;12.60;;;;;;;;;;5011511;28;20049;-75
2022/12/12 09:44:07;;;;;;;29.10;11.02;;;;;;;;;;5040552;28;20034;-75
2022/12/12 09:46:37;;;;;;;26.45;10.95;;;;;;;;;;5017901;28;20068;-74
2022/12/12 09:49:05;;;;;;;23.20;11.73;;;;;;;;;;4996294;28;20048;-74
2022/12/12 09:51:31;;;;;;;31.63;12.40;;;;;;;;;;5013577;28;20045;-74
2022/12/12 09:53:56;;;;;;;24.33;12.48;;;;;;;;;;5015075;28;20037;-74
2022/12/12 09:56:32;;;;;;;25.40;11.32;;;;;;;;;;5027209;28;20535;-74
2022/12/12 09:59:10;;;;;;;31.83;13.25;;;;;;;;;;5015867;28;20497;-74
2022/12/12 10:02:00;;;;;;;25.60;11.75;;;;;;;;;;5028921;28;20041;-74
2022/12/12 10:04:34;;;;;;;26.55;11.75;;;;;;;;;;5017902;28;20041;-74
2022/12/12 10:07:09;;;;;;;28.95;12.13;;;;;;;;;;5032802;28;20037;-74
2022/12/12 10:09:44;;;;;;;26.05;12.77;;;;;;;;;;5029573;28;20401;-74
2022/12/12 10:12:14;;;;;;;23.02;12.07;;;;;;;;;;5020431;28;20091;-74
2022/12/12 10:14:43;;;;;;;27.88;12.23;;;;;;;;;;5021358;28;20040;-74
2022/12/12 10:17:18;;;;;;;28.15;11.75;;;;;;;;;;5027573;28;20038;-74
2022/12/12 10:19:53;;;;;;;26.27;12.20;;;;;;;;;;4992375;28;20180;-74
2022/12/12 10:22:34;;;;;;;24.17;11.10;;;;;;;;;;5000730;28;20049;-74
2022/12/12 10:25:26;;;;;;;23.23;10.38;;;;;;;;;;4993648;28;20038;-74
2022/12/12 10:28:14;;;;;;;30.58;12.07;;;;;;;;;;4999865;28;20065;-74
2022/12/12 10:30:58;;;;;;;25.52;12.30;;;;;;;;;;5015996;28;20037;-74
2022/12/12 10:33:32;;;;;;;29.85;12.77;;;;;;;;;;5028360;28;20041;-74
2022/12/12 10:36:20;;;;;;;23.83;12.25;;;;;;;;;;5028350;28;20567;-74
2022/12/12 10:39:00;;;;;;;28.35;12.10;;;;;;;;;;5031381;28;20045;-74
2022/12/12 10:41:25;;;;;;;30.17;12.55;;;;;;;;;;5022935;28;20379;-74
2022/12/12 10:44:23;;;;;;;35.78;12.70;;;;;;;;;;5025276;28;20048;-74
2022/12/12 10:47:00;;;;;;;27.17;12.40;;;;;;;;;;5022299;28;20052;-74
2022/12/12 10:49:26;;;;;;;24.60;11.70;;;;;;;;;;5014025;28;20637;-74
2022/12/12 10:51:52;;;;;;;29.02;11.60;;;;;;;;;;5012328;28;20038;-74
2022/12/12 10:54:20;;;;;;;30.42;12.30;;;;;;;;;;5012475;28;20049;-74
2022/12/12 10:57:04;;;;;;;26.08;12.68;;;;;;;;;;5031433;28;20076;-74
2022/12/12 10:59:29;;;;;;;24.48;10.93;;;;;;;;;;5012463;28;20057;-74
2022/12/12 11:01:57;;;;;;;28.92;12.63;;;;;;;;;;5019908;28;20429;-75
2022/12/12 11:04:24;;;;;;;27.55;11.00;;;;;;;;;;5014689;28;20033;-75
2022/12/12 11:06:51;;;;;;;21.50;10.82;;;;;;;;;;5022674;28;20088;-74
2022/12/12 11:09:19;;;;;;;30.02;11.82;;;;;;;;;;5035631;28;20108;-74
2022/12/12 11:11:59;;;;;;;25.27;11.60;;;;;;;;;;5009377;28;20133;-75
2022/12/12 11:14:39;;;;;;;28.17;12.13;;;;;;;;;;5011362;28;20033;-74
2022/12/12 11:17:32;;;;;;;25.48;11.32;;;;;;;;;;5002873;28;20481;-74
2022/12/12 11:20:00;;;;;;;24.15;11.63;;;;;;;;;;5011026;28;20046;-74
2022/12/12 11:22:26;;;;;;;25.20;12.25;;;;;;;;;;5017405;28;20022;-74
2022/12/12 11:24:52;;;;;;;30.08;11.85;;;;;;;;;;5028395;28;20489;-74
2022/12/12 11:27:20;;;;;;;21.73;9.98;;;;;;;;;;5042429;28;20049;-75
2022/12/12 11:29:47;;;;;;;21.17;10.50;;;;;;;;;;5024611;28;20038;-75
2022/12/12 11:32:16;;;;;;;27.50;11.50;;;;;;;;;;5013434;28;20049;-75
2022/12/12 11:34:46;;;;;;;20.98;10.75;;;;;;;;;;5037639;28;20042;-75
2022/12/12 11:37:20;;;;;;;21.60;9.93;;;;;;;;;;4999186;28;20462;-76
2022/12/12 11:39:49;;;;;;;24.63;11.18;;;;;;;;;;5008044;28;20042;-75
2022/12/12 11:42:14;;;;;;;23.75;10.60;;;;;;;;;;5012903;28;20128;-76
2022/12/12 11:44:41;;;;;;;23.13;9.90;;;;;;;;;;5022460;28;20421;-74
2022/12/12 11:47:15;;;;;;;21.85;11.15;;;;;;;;;;4999928;28;20038;-74
2022/12/12 11:49:54;;;;;;;23.75;10.50;;;;;;;;;;5009590;28;20061;-75
2022/12/12 11:52:29;;;;;;;20.88;9.63;;;;;;;;;;5000960;28;20088;-75
2022/12/12 11:54:55;;;;;;;24.70;11.02;;;;;;;;;;5016056;28;20076;-75
2022/12/12 11:57:42;;;;;;;24.48;10.68;;;;;;;;;;5025121;28;20045;-75
2022/12/12 12:00:15;;;;;;;22.70;10.45;;;;;;;;;;5023825;28;20092;-75
2022/12/12 12:02:46;;;;;;;24.10;10.90;;;;;;;;;;5038851;28;20037;-75
2022/12/12 12:05:54;;;;;;;27.58;10.85;;;;;;;;;;5019104;28;20398;-75
2022/12/12 12:09:10;;;;;;;20.65;10.65;;;;;;;;;;5015439;28;20119;-74
2022/12/12 12:11:48;;;;;;;21.17;9.57;;;;;;;;;;4960152;28;20043;-75
2022/12/12 12:14:45;;;;;;;20.08;9.85;;;;;;;;;;4967240;28;20051;-74
2022/12/12 12:17:35;;;;;;;23.92;11.82;;;;;;;;;;4981945;28;20111;-74
2022/12/12 12:20:12;;;;;;;25.40;10.35;;;;;;;;;;5004737;28;20041;-74
2022/12/12 12:22:47;;;;;;;28.52;12.70;;;;;;;;;;5015390;28;20038;-75
2022/12/12 12:25:29;;;;;;;25.73;10.85;;;;;;;;;;5013244;28;20042;-74
2022/12/12 12:28:19;;;;;;;28.35;10.98;;;;;;;;;;5030930;28;20428;-74
2022/12/12 12:30:59;;;;;;;26.13;11.15;;;;;;;;;;5014470;28;20758;-75
2022/12/12 12:33:43;;;;;;;28.55;11.50;;;;;;;;;;5020974;28;20117;-75
2022/12/12 12:36:23;;;;;;;27.92;11.85;;;;;;;;;;5028261;28;20061;-74
2022/12/12 12:39:22;;;;;;;24.05;11.30;;;;;;;;;;5028411;28;20052;-75
2022/12/12 12:42:17;;;;;;;21.92;10.18;;;;;;;;;;5019158;28;20058;-75
2022/12/12 12:44:50;;;;;;;26.70;11.77;;;;;;;;;;5005213;28;20552;-75
2022/12/12 12:47:46;;;;;;;26.88;12.10;;;;;;;;;;5028217;28;20043;-75
2022/12/12 12:50:30;;;;;;;27.70;11.77;;;;;;;;;;5005236;28;20076;-74
2022/12/12 12:53:01;;;;;;;;;;;;;;;;;;4992892;28;20041;-75
2022/12/12 12:55:48;;;;;;;25.45;11.43;;;;;;;;;;5024731;28;20008;-75
2022/12/12 12:58:17;;;;;;;28.30;13.15;;;;;;;;;;4981003;28;20117;-75
2022/12/12 13:00:44;;;;;;;28.73;13.60;;;;;;;;;;5014051;28;20038;-74
2022/12/12 13:03:23;;;;;;;30.48;13.23;;;;;;;;;;5024929;28;20037;-75
2022/12/12 13:05:54;;;;;;;29.98;12.23;;;;;;;;;;5025262;28;20185;-75
2022/12/12 13:08:25;;;;;;;27.13;12.35;;;;;;;;;;4992360;28;20048;-75
2022/12/12 13:10:54;;;;;;;30.67;12.80;;;;;;;;;;5025542;28;20034;-76
2022/12/12 13:13:29;;;;;;;26.63;11.15;;;;;;;;;;4989977;28;20038;-74
2022/12/12 13:15:56;;;;;;;26.00;12.35;;;;;;;;;;5024409;28;20042;-74
2022/12/12 13:18:22;;;;;;;26.05;11.85;;;;;;;;;;5008695;28;20038;-74
2022/12/12 13:21:23;;;;;;;24.35;11.45;;;;;;;;;;5011584;28;20176;-74
2022/12/12 13:23:58;;;;;;;22.20;10.73;;;;;;;;;;4993104;28;20029;-74
2022/12/12 13:26:32;;;;;;;31.67;13.18;;;;;;;;;;4993421;28;20108;-74
2022/12/12 13:29:22;;;;;;;27.02;10.95;;;;;;;;;;5009932;28;20190;-74
2022/12/12 13:32:21;;;;;;;25.35;10.48;;;;;;;;;;5012726;28;20085;-74
2022/12/12 13:34:49;;;;;;;23.58;10.70;;;;;;;;;;5009798;28;20112;-73
2022/12/12 13:37:20;;;;;;;22.02;10.45;;;;;;;;;;4994044;28;20029;-74
2022/12/12 13:39:46;;;;;;;27.30;11.40;;;;;;;;;;4995163;28;20061;-74
2022/12/12 13:42:12;;;;;;;25.65;11.75;;;;;;;;;;4996927;28;20375;-74
2022/12/12 13:44:38;;;;;;;35.88;11.98;;;;;;;;;;4993260;28;20470;-74
2022/12/12 13:47:10;;;;;;;26.35;12.25;;;;;;;;;;5011258;28;20057;-74
2022/12/12 13:49:51;;;;;;;20.52;10.65;;;;;;;;;;5023834;28;20140;-74
2022/12/12 13:52:27;;;;;;;29.77;12.25;;;;;;;;;;5011263;28;20033;-74
2022/12/12 13:55:19;;;;;;;24.48;12.30;;;;;;;;;;5006406;28;20449;-75
2022/12/12 13:58:01;;;;;;;29.85;12.18;;;;;;;;;;5018842;28;20051;-75
2022/12/12 14:00:28;;;;;;;36.70;13.25;;;;;;;;;;5013138;28;21084;-75
2022/12/12 14:02:57;;;;;;;26.05;12.43;;;;;;;;;;5026993;28;20564;-75
2022/12/12 14:05:25;;;;;;;29.20;13.55;;;;;;;;;;5009654;28;20389;-76
2022/12/12 14:08:03;;;;;;;35.50;13.05;;;;;;;;;;5010660;28;20033;-75
2022/12/12 14:10:32;;;;;;;27.95;12.38;;;;;;;;;;5017766;28;20092;-75
2022/12/12 14:13:20;;;;;;;35.25;13.68;;;;;;;;;;5013200;28;20116;-75
2022/12/12 14:15:47;;;;;;;28.42;13.57;;;;;;;;;;5019094;28;20092;-75
2022/12/12 14:18:23;;;;;;;24.92;11.30;;;;;;;;;;5018948;28;20048;-75
2022/12/12 14:20:56;;;;;;;27.13;12.10;;;;;;;;;;5027550;28;20068;-75
2022/12/12 14:23:28;;;;;;;26.90;12.05;;;;;;;;;;5036176;28;20602;-76
2022/12/12 14:25:54;;;;;;;30.63;12.48;;;;;;;;;;4996271;28;20076;-75
2022/12/12 14:28:30;;;;;;;27.75;13.13;;;;;;;;;;4997156;28;20037;-75
2022/12/12 14:30:57;;;;;;;34.83;13.40;;;;;;;;;;4997317;28;20124;-76
2022/12/12 14:33:42;;;;;;;26.27;11.40;;;;;;;;;;5012989;28;20071;-75
2022/12/12 14:36:25;;;;;;;33.10;14.45;;;;;;;;;;5018826;28;20044;-74
2022/12/12 14:39:14;;;;;;;34.47;13.57;;;;;;;;;;4992363;28;20034;-75
2022/12/12 14:41:40;;;;;;;31.58;13.85;;;;;;;;;;4985211;28;20053;-75
2022/12/12 14:44:12;;;;;;;29.63;13.13;;;;;;;;;;5016838;28;20037;-75
2022/12/12 14:46:41;;;;;;;38.17;14.32;;;;;;;;;;4996545;28;20125;-75
2022/12/12 14:49:13;;;;;;;29.00;12.77;;;;;;;;;;5015893;28;20096;-74
2022/12/12 14:51:39;;;;;;;33.28;13.32;;;;;;;;;;5012010;28;20044;-74
2022/12/12 14:54:16;;;;;;;29.75;13.73;;;;;;;;;;5016602;28;20037;-75
2022/12/12 14:56:47;;;;;;;29.27;13.20;;;;;;;;;;5024009;28;20029;-74
2022/12/12 14:59:19;;;;;;;39.03;14.90;;;;;;;;;;5008691;28;20069;-74
2022/12/12 15:01:50;;;;;;;36.38;14.60;;;;;;;;;;5027791;28;20476;-74
2022/12/12 15:04:19;;;;;;;38.42;15.82;;;;;;;;;;5000547;28;20029;-74
2022/12/12 15:06:49;;;;;;;41.28;16.23;;;;;;;;;;5010168;28;20096;-74
2022/12/12 15:09:15;;;;;;;41.10;15.02;;;;;;;;;;5013888;28;20389;-74
2022/12/12 15:11:40;;;;;;;33.17;13.70;;;;;;;;;;5016530;28;20033;-74
2022/12/12 15:14:06;;;;;;;37.35;14.75;;;;;;;;;;5018318;28;20034;-75
2022/12/12 15:17:09;;;;;;;34.63;14.05;;;;;;;;;;5021570;28;20034;-74
2022/12/12 15:19:49;;;;;;;40.38;15.35;;;;;;;;;;5021676;28;20049;-75